sensor_id;sensor_type;location;lat;lon;timestamp;P1;durP1;ratioP1;P2;durP2;ratioP2
57297;SDS011;43147;50.972;18.210;2023-08-06T00:00:24;8.30;;;6.60;;
57297;SDS011;43147;50.972;18.210;2023-08-06T00:02:50;9.20;;;6.60;;
57297;SDS011;43147;50.972;18.210;2023-08-06T00:05:16;7.70;;;6.90;;
57297;SDS011;43147;50.972;18.210;2023-08-06T00:07:49;8.50;;;7.60;;
57297;SDS011;43147;50.972;18.210;2023-08-06T00:10:15;12.20;;;7.50;;
57297;SDS011;43147;50.972;18.210;2023-08-06T00:12:42;9.00;;;7.70;;
57297;SDS011;43147;50.972;18.210;2023-08-06T00:15:09;14.00;;;9.10;;
57297;SDS011;43147;50.972;18.210;2023-08-06T00:17:35;11.50;;;8.90;;
57297;SDS011;43147;50.972;18.210;2023-08-06T00:20:02;18.70;;;8.90;;
57297;SDS011;43147;50.972;18.210;2023-08-06T00:22:32;10.50;;;9.50;;
57297;SDS011;43147;50.972;18.210;2023-08-06T00:25:01;10.20;;;9.20;;
57297;SDS011;43147;50.972;18.210;2023-08-06T00:27:27;11.70;;;8.80;;
57297;SDS011;43147;50.972;18.210;2023-08-06T00:29:53;9.70;;;8.70;;
57297;SDS011;43147;50.972;18.210;2023-08-06T00:32:19;10.30;;;9.20;;
57297;SDS011;43147;50.972;18.210;2023-08-06T00:34:44;13.20;;;10.10;;
57297;SDS011;43147;50.972;18.210;2023-08-06T00:37:10;12.00;;;9.70;;
57297;SDS011;43147;50.972;18.210;2023-08-06T00:39:35;12.60;;;11.30;;
57297;SDS011;43147;50.972;18.210;2023-08-06T00:42:01;14.40;;;10.90;;
57297;SDS011;43147;50.972;18.210;2023-08-06T00:44:27;14.50;;;12.30;;
57297;SDS011;43147;50.972;18.210;2023-08-06T00:46:52;14.00;;;11.60;;
57297;SDS011;43147;50.972;18.210;2023-08-06T00:49:18;14.00;;;11.00;;
57297;SDS011;43147;50.972;18.210;2023-08-06T00:51:44;12.40;;;11.20;;
57297;SDS011;43147;50.972;18.210;2023-08-06T00:54:10;15.80;;;10.70;;
57297;SDS011;43147;50.972;18.210;2023-08-06T00:56:35;13.30;;;11.50;;
57297;SDS011;43147;50.972;18.210;2023-08-06T00:59:05;14.30;;;11.20;;
57297;SDS011;43147;50.972;18.210;2023-08-06T01:01:31;17.00;;;11.90;;
57297;SDS011;43147;50.972;18.210;2023-08-06T01:03:57;16.20;;;11.70;;
57297;SDS011;43147;50.972;18.210;2023-08-06T01:06:33;15.80;;;13.20;;
57297;SDS011;43147;50.972;18.210;2023-08-06T01:09:02;19.20;;;12.70;;
57297;SDS011;43147;50.972;18.210;2023-08-06T01:12:01;12.90;;;11.50;;
57297;SDS011;43147;50.972;18.210;2023-08-06T01:15:00;14.20;;;12.70;;
57297;SDS011;43147;50.972;18.210;2023-08-06T01:17:37;16.20;;;13.80;;
57297;SDS011;43147;50.972;18.210;2023-08-06T01:20:03;14.10;;;12.70;;
57297;SDS011;43147;50.972;18.210;2023-08-06T01:22:29;16.90;;;14.10;;
57297;SDS011;43147;50.972;18.210;2023-08-06T01:24:55;16.40;;;14.90;;
57297;SDS011;43147;50.972;18.210;2023-08-06T01:27:26;19.60;;;16.30;;
57297;SDS011;43147;50.972;18.210;2023-08-06T01:32:49;23.20;;;15.80;;
57297;SDS011;43147;50.972;18.210;2023-08-06T01:35:17;24.10;;;16.40;;
57297;SDS011;43147;50.972;18.210;2023-08-06T01:37:44;26.50;;;16.10;;
57297;SDS011;43147;50.972;18.210;2023-08-06T01:40:12;23.40;;;17.70;;
57297;SDS011;43147;50.972;18.210;2023-08-06T01:42:38;23.00;;;17.00;;
57297;SDS011;43147;50.972;18.210;2023-08-06T01:45:08;23.30;;;18.10;;
57297;SDS011;43147;50.972;18.210;2023-08-06T01:47:34;31.70;;;19.10;;
57297;SDS011;43147;50.972;18.210;2023-08-06T01:50:00;18.20;;;16.30;;
57297;SDS011;43147;50.972;18.210;2023-08-06T01:52:27;25.30;;;18.10;;
57297;SDS011;43147;50.972;18.210;2023-08-06T01:54:53;30.30;;;18.70;;
57297;SDS011;43147;50.972;18.210;2023-08-06T01:57:19;22.80;;;17.40;;
57297;SDS011;43147;50.972;18.210;2023-08-06T01:59:45;26.60;;;18.70;;
57297;SDS011;43147;50.972;18.210;2023-08-06T02:02:11;32.00;;;19.30;;
57297;SDS011;43147;50.972;18.210;2023-08-06T02:04:37;27.60;;;20.20;;
57297;SDS011;43147;50.972;18.210;2023-08-06T02:07:03;42.90;;;22.30;;
57297;SDS011;43147;50.972;18.210;2023-08-06T02:09:29;37.40;;;21.10;;
57297;SDS011;43147;50.972;18.210;2023-08-06T02:11:55;40.40;;;22.40;;
57297;SDS011;43147;50.972;18.210;2023-08-06T02:14:21;42.70;;;22.80;;
57297;SDS011;43147;50.972;18.210;2023-08-06T02:16:47;37.60;;;23.50;;
57297;SDS011;43147;50.972;18.210;2023-08-06T02:19:13;53.90;;;25.40;;
57297;SDS011;43147;50.972;18.210;2023-08-06T02:21:39;41.60;;;22.80;;
57297;SDS011;43147;50.972;18.210;2023-08-06T02:24:04;57.30;;;23.60;;
57297;SDS011;43147;50.972;18.210;2023-08-06T02:26:30;37.50;;;21.70;;
57297;SDS011;43147;50.972;18.210;2023-08-06T02:28:56;53.80;;;22.90;;
57297;SDS011;43147;50.972;18.210;2023-08-06T02:31:21;52.40;;;23.50;;
57297;SDS011;43147;50.972;18.210;2023-08-06T02:33:47;52.30;;;25.50;;
57297;SDS011;43147;50.972;18.210;2023-08-06T02:36:12;55.20;;;24.80;;
57297;SDS011;43147;50.972;18.210;2023-08-06T02:38:39;60.90;;;25.40;;
57297;SDS011;43147;50.972;18.210;2023-08-06T02:41:04;47.90;;;24.40;;
57297;SDS011;43147;50.972;18.210;2023-08-06T02:43:30;50.20;;;24.30;;
57297;SDS011;43147;50.972;18.210;2023-08-06T02:45:57;52.60;;;25.10;;
57297;SDS011;43147;50.972;18.210;2023-08-06T02:48:24;67.30;;;25.20;;
57297;SDS011;43147;50.972;18.210;2023-08-06T02:50:49;47.70;;;24.60;;
57297;SDS011;43147;50.972;18.210;2023-08-06T02:53:15;72.60;;;23.60;;
57297;SDS011;43147;50.972;18.210;2023-08-06T02:55:47;46.40;;;23.50;;
57297;SDS011;43147;50.972;18.210;2023-08-06T02:58:14;62.60;;;23.70;;
57297;SDS011;43147;50.972;18.210;2023-08-06T03:00:40;47.60;;;23.60;;
57297;SDS011;43147;50.972;18.210;2023-08-06T03:03:07;48.70;;;24.40;;
57297;SDS011;43147;50.972;18.210;2023-08-06T03:05:33;57.00;;;24.90;;
57297;SDS011;43147;50.972;18.210;2023-08-06T03:07:59;63.20;;;25.30;;
57297;SDS011;43147;50.972;18.210;2023-08-06T03:10:24;61.00;;;24.90;;
57297;SDS011;43147;50.972;18.210;2023-08-06T03:12:50;58.30;;;25.10;;
57297;SDS011;43147;50.972;18.210;2023-08-06T03:15:16;54.70;;;27.20;;
57297;SDS011;43147;50.972;18.210;2023-08-06T03:17:41;53.20;;;25.70;;
57297;SDS011;43147;50.972;18.210;2023-08-06T03:20:07;56.10;;;26.40;;
57297;SDS011;43147;50.972;18.210;2023-08-06T03:22:33;56.00;;;25.60;;
57297;SDS011;43147;50.972;18.210;2023-08-06T03:24:59;62.00;;;25.70;;
57297;SDS011;43147;50.972;18.210;2023-08-06T03:27:25;57.60;;;27.40;;
57297;SDS011;43147;50.972;18.210;2023-08-06T03:29:50;70.40;;;29.30;;
57297;SDS011;43147;50.972;18.210;2023-08-06T03:32:16;65.80;;;29.30;;
57297;SDS011;43147;50.972;18.210;2023-08-06T03:34:42;67.20;;;29.80;;
57297;SDS011;43147;50.972;18.210;2023-08-06T03:37:08;62.80;;;29.50;;
57297;SDS011;43147;50.972;18.210;2023-08-06T03:39:34;65.90;;;29.90;;
57297;SDS011;43147;50.972;18.210;2023-08-06T03:42:00;65.00;;;29.00;;
57297;SDS011;43147;50.972;18.210;2023-08-06T03:44:26;67.70;;;29.10;;
57297;SDS011;43147;50.972;18.210;2023-08-06T03:46:56;52.80;;;28.60;;
57297;SDS011;43147;50.972;18.210;2023-08-06T03:49:22;52.60;;;26.90;;
57297;SDS011;43147;50.972;18.210;2023-08-06T03:51:47;44.80;;;26.00;;
57297;SDS011;43147;50.972;18.210;2023-08-06T03:54:13;51.60;;;25.70;;
57297;SDS011;43147;50.972;18.210;2023-08-06T03:56:39;50.10;;;26.50;;
57297;SDS011;43147;50.972;18.210;2023-08-06T03:59:04;53.60;;;25.50;;
57297;SDS011;43147;50.972;18.210;2023-08-06T04:01:30;43.00;;;26.20;;
57297;SDS011;43147;50.972;18.210;2023-08-06T04:03:56;44.70;;;26.50;;
57297;SDS011;43147;50.972;18.210;2023-08-06T04:06:21;36.80;;;25.50;;
57297;SDS011;43147;50.972;18.210;2023-08-06T04:08:47;38.40;;;25.70;;
57297;SDS011;43147;50.972;18.210;2023-08-06T04:11:13;39.00;;;24.10;;
57297;SDS011;43147;50.972;18.210;2023-08-06T04:13:42;35.40;;;22.60;;
57297;SDS011;43147;50.972;18.210;2023-08-06T04:16:09;38.80;;;25.90;;
57297;SDS011;43147;50.972;18.210;2023-08-06T04:18:35;32.90;;;21.70;;
57297;SDS011;43147;50.972;18.210;2023-08-06T04:21:01;33.90;;;24.10;;
57297;SDS011;43147;50.972;18.210;2023-08-06T04:23:27;45.80;;;26.10;;
57297;SDS011;43147;50.972;18.210;2023-08-06T04:25:57;39.20;;;25.60;;
57297;SDS011;43147;50.972;18.210;2023-08-06T04:28:23;39.00;;;25.00;;
57297;SDS011;43147;50.972;18.210;2023-08-06T04:30:58;41.20;;;26.20;;
57297;SDS011;43147;50.972;18.210;2023-08-06T04:33:25;41.10;;;25.70;;
57297;SDS011;43147;50.972;18.210;2023-08-06T04:35:54;34.70;;;23.80;;
57297;SDS011;43147;50.972;18.210;2023-08-06T04:38:24;34.70;;;23.80;;
57297;SDS011;43147;50.972;18.210;2023-08-06T04:40:53;40.80;;;24.70;;
57297;SDS011;43147;50.972;18.210;2023-08-06T04:43:20;36.30;;;23.80;;
57297;SDS011;43147;50.972;18.210;2023-08-06T04:45:49;38.30;;;23.90;;
57297;SDS011;43147;50.972;18.210;2023-08-06T04:48:15;32.40;;;24.00;;
57297;SDS011;43147;50.972;18.210;2023-08-06T04:50:45;31.60;;;22.50;;
57297;SDS011;43147;50.972;18.210;2023-08-06T04:53:13;30.40;;;21.30;;
57297;SDS011;43147;50.972;18.210;2023-08-06T04:55:39;25.30;;;19.40;;
57297;SDS011;43147;50.972;18.210;2023-08-06T04:58:07;26.50;;;20.00;;
57297;SDS011;43147;50.972;18.210;2023-08-06T05:00:34;24.50;;;18.90;;
57297;SDS011;43147;50.972;18.210;2023-08-06T05:03:00;23.80;;;19.30;;
57297;SDS011;43147;50.972;18.210;2023-08-06T05:05:27;23.30;;;19.70;;
57297;SDS011;43147;50.972;18.210;2023-08-06T05:07:54;22.50;;;18.80;;
57297;SDS011;43147;50.972;18.210;2023-08-06T05:10:21;26.40;;;19.30;;
57297;SDS011;43147;50.972;18.210;2023-08-06T05:12:47;28.10;;;19.30;;
57297;SDS011;43147;50.972;18.210;2023-08-06T05:15:12;28.20;;;20.50;;
57297;SDS011;43147;50.972;18.210;2023-08-06T05:17:38;21.30;;;18.40;;
57297;SDS011;43147;50.972;18.210;2023-08-06T05:20:04;25.70;;;18.60;;
57297;SDS011;43147;50.972;18.210;2023-08-06T05:22:30;22.40;;;17.80;;
57297;SDS011;43147;50.972;18.210;2023-08-06T05:24:56;22.30;;;16.80;;
57297;SDS011;43147;50.972;18.210;2023-08-06T05:27:22;21.70;;;18.00;;
57297;SDS011;43147;50.972;18.210;2023-08-06T05:29:48;20.50;;;16.30;;
57297;SDS011;43147;50.972;18.210;2023-08-06T05:32:13;19.90;;;15.70;;
57297;SDS011;43147;50.972;18.210;2023-08-06T05:34:39;18.10;;;15.00;;
57297;SDS011;43147;50.972;18.210;2023-08-06T05:37:07;22.20;;;15.80;;
57297;SDS011;43147;50.972;18.210;2023-08-06T05:39:34;19.10;;;16.80;;
57297;SDS011;43147;50.972;18.210;2023-08-06T05:42:00;18.50;;;15.00;;
57297;SDS011;43147;50.972;18.210;2023-08-06T05:44:26;17.10;;;15.40;;
57297;SDS011;43147;50.972;18.210;2023-08-06T05:46:51;18.80;;;15.80;;
57297;SDS011;43147;50.972;18.210;2023-08-06T05:49:19;18.10;;;15.00;;
57297;SDS011;43147;50.972;18.210;2023-08-06T05:51:44;15.70;;;14.10;;
57297;SDS011;43147;50.972;18.210;2023-08-06T05:54:10;24.60;;;16.40;;
57297;SDS011;43147;50.972;18.210;2023-08-06T05:56:36;16.60;;;13.90;;
57297;SDS011;43147;50.972;18.210;2023-08-06T05:59:02;18.60;;;14.60;;
57297;SDS011;43147;50.972;18.210;2023-08-06T06:01:28;17.50;;;13.90;;
57297;SDS011;43147;50.972;18.210;2023-08-06T06:03:56;15.30;;;13.20;;
57297;SDS011;43147;50.972;18.210;2023-08-06T06:06:21;16.00;;;13.50;;
57297;SDS011;43147;50.972;18.210;2023-08-06T06:08:47;22.20;;;13.50;;
57297;SDS011;43147;50.972;18.210;2023-08-06T06:11:13;13.00;;;11.50;;
57297;SDS011;43147;50.972;18.210;2023-08-06T06:13:38;15.80;;;12.70;;
57297;SDS011;43147;50.972;18.210;2023-08-06T06:16:05;15.40;;;11.80;;
57297;SDS011;43147;50.972;18.210;2023-08-06T06:18:30;10.80;;;9.70;;
57297;SDS011;43147;50.972;18.210;2023-08-06T06:20:56;10.50;;;8.30;;
57297;SDS011;43147;50.972;18.210;2023-08-06T06:23:22;7.70;;;7.00;;
57297;SDS011;43147;50.972;18.210;2023-08-06T06:25:48;7.20;;;6.50;;
57297;SDS011;43147;50.972;18.210;2023-08-06T06:28:17;27.90;;;16.40;;
57297;SDS011;43147;50.972;18.210;2023-08-06T06:30:43;39.20;;;18.80;;
57297;SDS011;43147;50.972;18.210;2023-08-06T06:33:09;19.60;;;11.60;;
57297;SDS011;43147;50.972;18.210;2023-08-06T06:35:35;13.80;;;9.30;;
57297;SDS011;43147;50.972;18.210;2023-08-06T06:38:00;4.20;;;3.70;;
57297;SDS011;43147;50.972;18.210;2023-08-06T06:40:26;9.30;;;4.50;;
57297;SDS011;43147;50.972;18.210;2023-08-06T06:42:52;12.10;;;9.10;;
57297;SDS011;43147;50.972;18.210;2023-08-06T06:45:17;18.30;;;11.80;;
57297;SDS011;43147;50.972;18.210;2023-08-06T06:47:43;11.00;;;7.80;;
57297;SDS011;43147;50.972;18.210;2023-08-06T06:50:09;7.40;;;5.60;;
57297;SDS011;43147;50.972;18.210;2023-08-06T06:52:35;8.80;;;6.10;;
57297;SDS011;43147;50.972;18.210;2023-08-06T06:55:00;8.80;;;6.20;;
57297;SDS011;43147;50.972;18.210;2023-08-06T06:57:26;7.50;;;5.70;;
57297;SDS011;43147;50.972;18.210;2023-08-06T06:59:52;7.30;;;5.30;;
57297;SDS011;43147;50.972;18.210;2023-08-06T07:02:18;10.30;;;5.40;;
57297;SDS011;43147;50.972;18.210;2023-08-06T07:04:44;4.80;;;3.50;;
57297;SDS011;43147;50.972;18.210;2023-08-06T07:07:09;8.30;;;4.80;;
57297;SDS011;43147;50.972;18.210;2023-08-06T07:09:35;3.90;;;2.70;;
57297;SDS011;43147;50.972;18.210;2023-08-06T07:12:01;3.00;;;1.70;;
57297;SDS011;43147;50.972;18.210;2023-08-06T07:14:28;1.30;;;1.00;;
57297;SDS011;43147;50.972;18.210;2023-08-06T07:16:54;2.50;;;1.60;;
57297;SDS011;43147;50.972;18.210;2023-08-06T07:19:20;6.50;;;2.60;;
57297;SDS011;43147;50.972;18.210;2023-08-06T07:21:48;4.00;;;3.20;;
57297;SDS011;43147;50.972;18.210;2023-08-06T07:24:14;4.60;;;3.40;;
57297;SDS011;43147;50.972;18.210;2023-08-06T07:26:40;3.50;;;2.30;;
57297;SDS011;43147;50.972;18.210;2023-08-06T07:29:07;3.30;;;2.20;;
57297;SDS011;43147;50.972;18.210;2023-08-06T07:31:32;4.00;;;1.60;;
57297;SDS011;43147;50.972;18.210;2023-08-06T07:33:58;2.50;;;1.70;;
57297;SDS011;43147;50.972;18.210;2023-08-06T07:36:23;5.80;;;1.40;;
57297;SDS011;43147;50.972;18.210;2023-08-06T07:38:49;4.20;;;1.40;;
57297;SDS011;43147;50.972;18.210;2023-08-06T07:41:21;2.80;;;1.50;;
57297;SDS011;43147;50.972;18.210;2023-08-06T07:43:48;3.30;;;1.00;;
57297;SDS011;43147;50.972;18.210;2023-08-06T07:46:15;1.80;;;0.60;;
57297;SDS011;43147;50.972;18.210;2023-08-06T07:48:41;2.10;;;0.80;;
57297;SDS011;43147;50.972;18.210;2023-08-06T07:51:07;2.70;;;0.60;;
57297;SDS011;43147;50.972;18.210;2023-08-06T07:53:32;1.90;;;0.80;;
57297;SDS011;43147;50.972;18.210;2023-08-06T07:55:58;2.00;;;0.60;;
57297;SDS011;43147;50.972;18.210;2023-08-06T07:58:24;0.50;;;0.50;;
57297;SDS011;43147;50.972;18.210;2023-08-06T08:00:51;0.40;;;0.40;;
57297;SDS011;43147;50.972;18.210;2023-08-06T08:03:16;1.20;;;0.80;;
57297;SDS011;43147;50.972;18.210;2023-08-06T08:05:43;3.50;;;1.00;;
57297;SDS011;43147;50.972;18.210;2023-08-06T08:08:09;1.10;;;0.90;;
57297;SDS011;43147;50.972;18.210;2023-08-06T08:10:37;1.50;;;0.60;;
57297;SDS011;43147;50.972;18.210;2023-08-06T08:13:04;0.80;;;0.50;;
57297;SDS011;43147;50.972;18.210;2023-08-06T08:15:30;0.90;;;0.50;;
57297;SDS011;43147;50.972;18.210;2023-08-06T08:17:56;0.80;;;0.60;;
57297;SDS011;43147;50.972;18.210;2023-08-06T08:20:22;1.30;;;0.50;;
57297;SDS011;43147;50.972;18.210;2023-08-06T08:22:48;0.80;;;0.50;;
57297;SDS011;43147;50.972;18.210;2023-08-06T08:25:15;0.70;;;0.50;;
57297;SDS011;43147;50.972;18.210;2023-08-06T08:27:41;0.60;;;0.50;;
57297;SDS011;43147;50.972;18.210;2023-08-06T08:30:07;1.10;;;0.70;;
57297;SDS011;43147;50.972;18.210;2023-08-06T08:32:33;2.70;;;0.80;;
57297;SDS011;43147;50.972;18.210;2023-08-06T08:34:59;1.10;;;0.40;;
57297;SDS011;43147;50.972;18.210;2023-08-06T08:37:25;1.40;;;0.60;;
57297;SDS011;43147;50.972;18.210;2023-08-06T08:39:51;1.50;;;0.60;;
57297;SDS011;43147;50.972;18.210;2023-08-06T08:42:18;0.70;;;0.70;;
57297;SDS011;43147;50.972;18.210;2023-08-06T08:44:44;1.60;;;1.00;;
57297;SDS011;43147;50.972;18.210;2023-08-06T08:47:10;3.30;;;0.90;;
57297;SDS011;43147;50.972;18.210;2023-08-06T08:49:36;4.10;;;0.90;;
57297;SDS011;43147;50.972;18.210;2023-08-06T08:52:03;1.10;;;0.60;;
57297;SDS011;43147;50.972;18.210;2023-08-06T08:54:34;1.70;;;0.70;;
57297;SDS011;43147;50.972;18.210;2023-08-06T08:57:00;2.00;;;0.70;;
57297;SDS011;43147;50.972;18.210;2023-08-06T08:59:27;1.20;;;0.80;;
57297;SDS011;43147;50.972;18.210;2023-08-06T09:01:52;0.80;;;0.70;;
57297;SDS011;43147;50.972;18.210;2023-08-06T09:04:19;2.60;;;0.70;;
57297;SDS011;43147;50.972;18.210;2023-08-06T09:06:50;1.20;;;0.80;;
57297;SDS011;43147;50.972;18.210;2023-08-06T09:09:26;1.50;;;0.80;;
57297;SDS011;43147;50.972;18.210;2023-08-06T09:11:53;1.30;;;0.90;;
57297;SDS011;43147;50.972;18.210;2023-08-06T09:14:23;2.20;;;1.10;;
57297;SDS011;43147;50.972;18.210;2023-08-06T09:16:49;1.60;;;1.40;;
57297;SDS011;43147;50.972;18.210;2023-08-06T09:19:15;1.50;;;1.40;;
57297;SDS011;43147;50.972;18.210;2023-08-06T09:21:45;3.10;;;1.60;;
57297;SDS011;43147;50.972;18.210;2023-08-06T09:24:14;1.80;;;1.40;;
57297;SDS011;43147;50.972;18.210;2023-08-06T09:26:40;1.40;;;1.20;;
57297;SDS011;43147;50.972;18.210;2023-08-06T09:29:07;1.50;;;1.10;;
57297;SDS011;43147;50.972;18.210;2023-08-06T09:31:43;2.00;;;1.30;;
57297;SDS011;43147;50.972;18.210;2023-08-06T09:34:16;3.70;;;2.40;;
57297;SDS011;43147;50.972;18.210;2023-08-06T09:36:43;2.60;;;2.00;;
57297;SDS011;43147;50.972;18.210;2023-08-06T09:39:13;3.40;;;1.50;;
57297;SDS011;43147;50.972;18.210;2023-08-06T09:41:41;5.50;;;1.50;;
57297;SDS011;43147;50.972;18.210;2023-08-06T09:44:20;1.40;;;1.10;;
57297;SDS011;43147;50.972;18.210;2023-08-06T09:46:56;2.20;;;1.00;;
57297;SDS011;43147;50.972;18.210;2023-08-06T09:49:27;1.70;;;0.80;;
57297;SDS011;43147;50.972;18.210;2023-08-06T09:51:58;1.60;;;0.80;;
57297;SDS011;43147;50.972;18.210;2023-08-06T09:54:25;1.40;;;0.80;;
57297;SDS011;43147;50.972;18.210;2023-08-06T09:56:52;1.90;;;0.80;;
57297;SDS011;43147;50.972;18.210;2023-08-06T09:59:19;1.40;;;0.60;;
57297;SDS011;43147;50.972;18.210;2023-08-06T10:01:44;3.10;;;1.20;;
57297;SDS011;43147;50.972;18.210;2023-08-06T10:04:10;3.30;;;1.30;;
57297;SDS011;43147;50.972;18.210;2023-08-06T10:06:46;0.80;;;0.60;;
57297;SDS011;43147;50.972;18.210;2023-08-06T10:09:16;0.60;;;0.50;;
57297;SDS011;43147;50.972;18.210;2023-08-06T10:11:42;1.10;;;0.60;;
57297;SDS011;43147;50.972;18.210;2023-08-06T10:14:30;1.80;;;0.80;;
57297;SDS011;43147;50.972;18.210;2023-08-06T10:16:57;1.30;;;0.90;;
57297;SDS011;43147;50.972;18.210;2023-08-06T10:19:23;2.00;;;0.80;;
57297;SDS011;43147;50.972;18.210;2023-08-06T10:22:08;1.30;;;0.70;;
57297;SDS011;43147;50.972;18.210;2023-08-06T10:24:50;0.80;;;0.70;;
57297;SDS011;43147;50.972;18.210;2023-08-06T10:30:27;1.90;;;0.80;;
57297;SDS011;43147;50.972;18.210;2023-08-06T10:33:01;1.10;;;0.70;;
57297;SDS011;43147;50.972;18.210;2023-08-06T10:35:43;1.10;;;0.80;;
57297;SDS011;43147;50.972;18.210;2023-08-06T10:38:14;1.00;;;0.70;;
57297;SDS011;43147;50.972;18.210;2023-08-06T10:41:00;3.20;;;0.80;;
57297;SDS011;43147;50.972;18.210;2023-08-06T10:43:33;1.40;;;0.70;;
57297;SDS011;43147;50.972;18.210;2023-08-06T10:46:11;1.20;;;0.60;;
57297;SDS011;43147;50.972;18.210;2023-08-06T10:48:48;1.20;;;0.70;;
57297;SDS011;43147;50.972;18.210;2023-08-06T10:51:14;0.50;;;0.50;;
57297;SDS011;43147;50.972;18.210;2023-08-06T10:53:43;0.60;;;0.50;;
57297;SDS011;43147;50.972;18.210;2023-08-06T10:58:40;0.90;;;0.70;;
57297;SDS011;43147;50.972;18.210;2023-08-06T11:01:06;2.70;;;0.70;;
57297;SDS011;43147;50.972;18.210;2023-08-06T11:03:32;1.30;;;0.70;;
57297;SDS011;43147;50.972;18.210;2023-08-06T11:05:58;1.20;;;0.60;;
57297;SDS011;43147;50.972;18.210;2023-08-06T11:08:27;0.70;;;0.70;;
57297;SDS011;43147;50.972;18.210;2023-08-06T11:10:53;1.10;;;0.80;;
57297;SDS011;43147;50.972;18.210;2023-08-06T11:13:22;1.60;;;1.20;;
57297;SDS011;43147;50.972;18.210;2023-08-06T11:15:48;2.30;;;1.40;;
57297;SDS011;43147;50.972;18.210;2023-08-06T11:18:13;2.30;;;1.50;;
57297;SDS011;43147;50.972;18.210;2023-08-06T11:20:39;1.90;;;1.30;;
57297;SDS011;43147;50.972;18.210;2023-08-06T11:23:05;1.10;;;0.90;;
57297;SDS011;43147;50.972;18.210;2023-08-06T11:25:34;1.00;;;0.90;;
57297;SDS011;43147;50.972;18.210;2023-08-06T11:28:02;1.80;;;1.20;;
57297;SDS011;43147;50.972;18.210;2023-08-06T11:30:28;1.30;;;1.00;;
57297;SDS011;43147;50.972;18.210;2023-08-06T11:32:53;1.00;;;0.80;;
57297;SDS011;43147;50.972;18.210;2023-08-06T11:35:19;1.30;;;1.00;;
57297;SDS011;43147;50.972;18.210;2023-08-06T11:37:45;1.40;;;1.10;;
57297;SDS011;43147;50.972;18.210;2023-08-06T11:40:11;1.80;;;1.20;;
57297;SDS011;43147;50.972;18.210;2023-08-06T11:42:37;2.80;;;1.10;;
57297;SDS011;43147;50.972;18.210;2023-08-06T11:45:03;2.10;;;1.20;;
57297;SDS011;43147;50.972;18.210;2023-08-06T11:47:30;1.70;;;1.10;;
57297;SDS011;43147;50.972;18.210;2023-08-06T11:49:56;1.40;;;1.00;;
57297;SDS011;43147;50.972;18.210;2023-08-06T11:52:25;5.20;;;1.10;;
57297;SDS011;43147;50.972;18.210;2023-08-06T11:55:04;2.30;;;0.80;;
57297;SDS011;43147;50.972;18.210;2023-08-06T11:57:37;3.00;;;1.60;;
57297;SDS011;43147;50.972;18.210;2023-08-06T12:00:06;1.80;;;1.30;;
57297;SDS011;43147;50.972;18.210;2023-08-06T12:02:33;2.00;;;1.00;;
57297;SDS011;43147;50.972;18.210;2023-08-06T12:05:20;2.80;;;1.40;;
57297;SDS011;43147;50.972;18.210;2023-08-06T12:07:57;0.90;;;0.80;;
57297;SDS011;43147;50.972;18.210;2023-08-06T12:10:27;0.80;;;0.80;;
57297;SDS011;43147;50.972;18.210;2023-08-06T12:12:53;1.20;;;1.10;;
57297;SDS011;43147;50.972;18.210;2023-08-06T12:15:19;1.20;;;1.10;;
57297;SDS011;43147;50.972;18.210;2023-08-06T12:17:45;1.20;;;1.10;;
57297;SDS011;43147;50.972;18.210;2023-08-06T12:20:11;2.30;;;1.70;;
57297;SDS011;43147;50.972;18.210;2023-08-06T12:22:37;1.30;;;1.20;;
57297;SDS011;43147;50.972;18.210;2023-08-06T12:25:07;1.60;;;1.50;;
57297;SDS011;43147;50.972;18.210;2023-08-06T12:27:33;1.80;;;1.70;;
57297;SDS011;43147;50.972;18.210;2023-08-06T12:30:03;2.20;;;2.00;;
57297;SDS011;43147;50.972;18.210;2023-08-06T12:32:33;2.50;;;2.30;;
57297;SDS011;43147;50.972;18.210;2023-08-06T12:34:59;2.50;;;2.30;;
57297;SDS011;43147;50.972;18.210;2023-08-06T12:37:25;3.30;;;2.70;;
57297;SDS011;43147;50.972;18.210;2023-08-06T12:39:51;3.20;;;2.90;;
57297;SDS011;43147;50.972;18.210;2023-08-06T12:42:16;2.80;;;2.60;;
57297;SDS011;43147;50.972;18.210;2023-08-06T12:44:42;2.40;;;2.30;;
57297;SDS011;43147;50.972;18.210;2023-08-06T12:47:08;2.40;;;2.20;;
57297;SDS011;43147;50.972;18.210;2023-08-06T12:49:34;2.60;;;2.40;;
57297;SDS011;43147;50.972;18.210;2023-08-06T12:51:59;2.20;;;2.10;;
57297;SDS011;43147;50.972;18.210;2023-08-06T12:54:25;2.30;;;2.20;;
57297;SDS011;43147;50.972;18.210;2023-08-06T12:56:51;2.60;;;2.40;;
57297;SDS011;43147;50.972;18.210;2023-08-06T12:59:17;2.30;;;2.10;;
57297;SDS011;43147;50.972;18.210;2023-08-06T13:01:43;2.80;;;1.80;;
57297;SDS011;43147;50.972;18.210;2023-08-06T13:04:09;1.70;;;1.60;;
57297;SDS011;43147;50.972;18.210;2023-08-06T13:06:35;3.40;;;1.50;;
57297;SDS011;43147;50.972;18.210;2023-08-06T13:09:05;1.20;;;1.10;;
57297;SDS011;43147;50.972;18.210;2023-08-06T13:11:32;1.20;;;1.10;;
57297;SDS011;43147;50.972;18.210;2023-08-06T13:14:05;1.40;;;1.30;;
57297;SDS011;43147;50.972;18.210;2023-08-06T13:16:32;1.40;;;1.30;;
57297;SDS011;43147;50.972;18.210;2023-08-06T13:18:58;2.00;;;1.40;;
57297;SDS011;43147;50.972;18.210;2023-08-06T13:21:23;1.00;;;1.00;;
57297;SDS011;43147;50.972;18.210;2023-08-06T13:23:49;2.30;;;1.20;;
57297;SDS011;43147;50.972;18.210;2023-08-06T13:26:15;1.40;;;1.30;;
57297;SDS011;43147;50.972;18.210;2023-08-06T13:28:43;2.70;;;1.50;;
57297;SDS011;43147;50.972;18.210;2023-08-06T13:31:10;0.90;;;0.90;;
57297;SDS011;43147;50.972;18.210;2023-08-06T13:33:35;1.10;;;0.80;;
57297;SDS011;43147;50.972;18.210;2023-08-06T13:36:01;1.30;;;0.90;;
57297;SDS011;43147;50.972;18.210;2023-08-06T13:38:26;0.90;;;0.80;;
57297;SDS011;43147;50.972;18.210;2023-08-06T13:40:52;0.70;;;0.70;;
57297;SDS011;43147;50.972;18.210;2023-08-06T13:43:18;0.70;;;0.70;;
57297;SDS011;43147;50.972;18.210;2023-08-06T13:45:44;1.00;;;0.80;;
57297;SDS011;43147;50.972;18.210;2023-08-06T13:48:10;0.70;;;0.70;;
57297;SDS011;43147;50.972;18.210;2023-08-06T13:50:36;1.00;;;0.70;;
57297;SDS011;43147;50.972;18.210;2023-08-06T13:53:02;2.40;;;0.80;;
57297;SDS011;43147;50.972;18.210;2023-08-06T13:55:29;1.20;;;0.90;;
57297;SDS011;43147;50.972;18.210;2023-08-06T13:57:55;1.20;;;0.70;;
57297;SDS011;43147;50.972;18.210;2023-08-06T14:00:21;0.90;;;0.80;;
57297;SDS011;43147;50.972;18.210;2023-08-06T14:02:47;1.10;;;0.80;;
57297;SDS011;43147;50.972;18.210;2023-08-06T14:05:12;0.90;;;0.80;;
57297;SDS011;43147;50.972;18.210;2023-08-06T14:07:38;0.70;;;0.70;;
57297;SDS011;43147;50.972;18.210;2023-08-06T14:10:04;1.20;;;1.10;;
57297;SDS011;43147;50.972;18.210;2023-08-06T14:12:31;1.20;;;1.10;;
57297;SDS011;43147;50.972;18.210;2023-08-06T14:14:56;1.40;;;1.20;;
57297;SDS011;43147;50.972;18.210;2023-08-06T14:17:22;1.10;;;0.90;;
57297;SDS011;43147;50.972;18.210;2023-08-06T14:19:48;2.30;;;0.90;;
57297;SDS011;43147;50.972;18.210;2023-08-06T14:22:14;1.90;;;0.90;;
57297;SDS011;43147;50.972;18.210;2023-08-06T14:24:39;0.90;;;0.80;;
57297;SDS011;43147;50.972;18.210;2023-08-06T14:27:06;1.40;;;0.60;;
57297;SDS011;43147;50.972;18.210;2023-08-06T14:29:31;1.10;;;1.00;;
57297;SDS011;43147;50.972;18.210;2023-08-06T14:31:57;1.20;;;1.10;;